Pocahontas, Arkansas
Current Conditions -  °F | °C
As of 4:15 PM on Monday 20 Oct 2014 (Local Time) from KARG Reporting Station
Overcast Overcast  
Wind Chill: 73°   Ceiling: 6500
Heat Index: 73°   Visibility: 10mi
Dew Point: 54°   Wind: 6mph
Humidity: 50%   Direction: 280°W
Pressure: 29.98"   Gusts: NA
Location:  36.28°N, 90.94°W
Report Text: KARG 202115Z AUTO 28005KT 10SM OVC065 23/12 A2998 RMK AO1
Loading
Personal Weather Stations






























Interactive Weather Map
Tropical Storm Tracking
New forecast layout! Learn more

10-Day Weather Forecast

Advertisements
Track Severe Weather on mobile